Pagrindinis puslapis
METAR-TAF:

METAR-TAF

Oro uostai :

Šarm el Šeichas, Egiptas

platuma: 27-58N, ilguma: 034-23E, Aukštis: 50 m

Dabartinis oras

Ataskaita buvo paskelbta 1 valandą ir 29 minutes, ne 22:00 UTC
Vėjas 8 kt iš Šiaurės/Šiaurės Vakarų
Temperatūra 23°C
Drėgmė 57%
Slėgis 1011 hPa
Matomumas 10 km arba daugiau
nėra debesų žemiau 1500 m ir nėra kamuolinių lietaus debesų

METAR: HESH 072200Z 34008KT CAVOK 23/14 Q1011 NOSIG

Laikas: 01:29 (23:29 UTC)

Prognozė

Ataskaita buvo paskelbta 6 valandos ir 29 minutes, ne 17:00 UTC
Prognozė galioja nuo 07 metu 18 UTC su 08 metu 24 UTC
Vėjas 10 kt iš Šiaurės/Šiaurės Rytų
Matomumas 10 km arba daugiau
nėra debesų žemiau 1500 m ir nėra kamuolinių lietaus debesų

TAF: HESH 071700Z 0718/0824 02010KT CAVOK

Orai ataskaitas ir orų prognozės (METAR, TAF).

turimą stotys yra geltonos ir raudonos taškus žemėlapyje.

Perkelti pele per norėdami pamatyti stoties vardą.

Tada spustelėkite, norėdami matyti oro stebėjimo ir prognozės.

Norėdami pakeisti žemėlapį: spustelėkite ant žalios mygtukų su juodo kryžiaus žemyn,; žalią mygtuką su brūkšneliu, jei norite nutolinti; arba žalių rodyklių gretimoms žemėlapius.


METAR-TAF: